Time;durP1;ratioP1;P1;durP2;ratioP2;P2;SDS_P1;SDS_P2;PMS_P1;PMS_P2;Temp;Humidity;BMP_temperature;BMP_pressure;BME280_temperature;BME280_humidity;BME280_pressure;Samples;Min_cycle;Max_cycle;Signal;HPM_P1;HPM_P2
2021/07/18 00:01:41;;;;;;;;;7.67;7.00;;;;;21.29;59.55;101909.41;5035539;28;45334;-67
2021/07/18 00:04:07;;;;;;;;;10.67;9.00;;;;;21.27;59.53;101912.13;5033182;28;45340;-67
2021/07/18 00:06:32;;;;;;;;;7.50;7.50;;;;;21.26;59.56;101906.84;5032863;28;46354;-67
2021/07/18 00:08:57;;;;;;;;;9.00;7.67;;;;;21.23;60.21;101907.00;5032874;28;45399;-67
2021/07/18 00:11:23;;;;;;;;;7.00;6.67;;;;;21.20;59.75;101908.00;5032733;28;45462;-67
2021/07/18 00:13:48;;;;;;;;;10.00;7.33;;;;;21.17;59.98;101901.03;5035071;28;45372;-67
2021/07/18 00:16:14;;;;;;;;;8.33;7.33;;;;;21.15;59.97;101908.22;5031832;28;46319;-67
2021/07/18 00:18:39;;;;;;;;;7.75;6.00;;;;;21.13;60.07;101906.56;5032578;28;45329;-67
2021/07/18 00:21:04;;;;;;;;;7.33;6.67;;;;;21.11;60.40;101916.41;5032097;28;45461;-67
2021/07/18 00:23:30;;;;;;;;;8.00;7.25;;;;;21.08;60.51;101917.44;5030962;28;45270;-66
2021/07/18 00:25:55;;;;;;;;;6.00;6.00;;;;;21.07;60.61;101909.50;5033719;28;47151;-67
2021/07/18 00:28:20;;;;;;;;;9.75;9.75;;;;;21.04;60.41;101913.16;5031707;28;45276;-67
2021/07/18 00:30:46;;;;;;;;;7.75;7.75;;;;;21.02;60.95;101909.69;5032987;28;45339;-67
2021/07/18 00:33:11;;;;;;;;;8.50;6.50;;;;;20.99;61.01;101918.69;5032926;28;45504;-67
2021/07/18 00:35:37;;;;;;;;;7.67;7.67;;;;;20.96;60.81;101915.31;5032326;28;45551;-68
2021/07/18 00:38:03;;;;;;;;;10.33;7.00;;;;;20.93;60.90;101916.34;5032708;28;45339;-67
2021/07/18 00:40:28;;;;;;;;;8.00;7.25;;;;;20.91;61.11;101912.88;5033710;28;45420;-67
2021/07/18 00:42:53;;;;;;;;;8.00;8.00;;;;;20.91;61.44;101912.88;5032435;28;45478;-67
2021/07/18 00:45:19;;;;;;;;;10.25;8.50;;;;;20.89;61.31;101917.38;5032555;28;45412;-66
2021/07/18 00:47:44;;;;;;;;;9.25;8.50;;;;;20.86;61.45;101919.34;5033116;28;45637;-67
2021/07/18 00:50:12;;;;;;;;;10.25;9.00;;;;;20.84;61.43;101914.06;5033088;28;45509;-67
2021/07/18 00:52:38;;;;;;;;;9.50;8.25;;;;;20.82;61.25;101915.06;5035196;28;45299;-67
2021/07/18 00:55:05;;;;;;;;;12.00;9.25;;;;;20.79;61.54;101919.59;5032380;28;46292;-67
2021/07/18 00:57:32;;;;;;;;;10.00;8.67;;;;;20.76;61.63;101919.75;5032576;28;45465;-67
2021/07/18 00:59:59;;;;;;;;;10.00;8.00;;;;;20.74;61.83;101916.28;5032581;28;45452;-66
2021/07/18 01:02:25;;;;;;;;;9.75;8.00;;;;;20.71;62.01;101911.09;5031409;28;45435;-67
2021/07/18 01:04:51;;;;;;;;;9.33;8.67;;;;;20.69;61.99;101906.75;5034937;28;47029;-66
2021/07/18 01:07:16;;;;;;;;;10.00;8.00;;;;;20.67;62.14;101908.66;5033204;28;45879;-68
2021/07/18 01:09:41;;;;;;;;;8.67;8.67;;;;;20.64;61.87;101912.31;5032425;28;45437;-68
2021/07/18 01:12:07;;;;;;;;;10.25;10.25;;;;;20.61;62.32;101912.41;5032739;28;45213;-68
2021/07/18 01:14:32;;;;;;;;;7.67;6.33;;;;;20.58;62.17;101907.25;5032469;28;47048;-67
2021/07/18 01:16:59;;;;;;;;;9.00;8.25;;;;;20.55;62.47;101913.56;5033841;28;45341;-68
2021/07/18 01:19:27;;;;;;;;;7.75;7.75;;;;;20.54;62.70;101918.91;5033791;28;45292;-68
2021/07/18 01:21:58;;;;;;;;;7.50;7.50;;;;;20.51;62.62;101919.03;5032530;28;45589;-68
2021/07/18 01:24:24;;;;;;;;;11.00;9.33;;;;;20.47;62.97;101918.28;5032169;28;45388;-67
2021/07/18 01:26:49;;;;;;;;;11.75;11.00;;;;;20.46;62.95;101918.38;5032165;28;45350;-67
2021/07/18 01:29:15;;;;;;;;;10.50;9.50;;;;;20.43;62.97;101921.19;5032626;28;45451;-68
2021/07/18 01:31:40;;;;;;;;;13.00;8.25;;;;;20.39;62.79;101911.59;5034434;28;45418;-68
2021/07/18 01:34:06;;;;;;;;;11.75;8.75;;;;;20.35;63.14;101909.06;5032248;28;45372;-68
2021/07/18 01:36:31;;;;;;;;;9.00;8.00;;;;;20.33;63.21;101907.38;5032139;28;45359;-67
2021/07/18 01:38:56;;;;;;;;;7.50;6.50;;;;;20.31;62.96;101906.63;5031610;28;45401;-67
2021/07/18 01:41:22;;;;;;;;;9.00;7.75;;;;;20.29;63.18;101905.81;5030908;28;45360;-67
2021/07/18 01:43:47;;;;;;;;;5.00;2.50;;;;;20.26;63.38;101896.16;5029693;28;45386;-68
2021/07/18 01:46:12;;;;;;;;;11.50;10.50;;;;;20.24;63.33;101906.00;5030665;28;45365;-68
2021/07/18 01:48:40;;;;;;;;;8.50;7.50;;;;;20.21;63.38;101898.13;5034266;28;45445;-68
2021/07/18 01:51:05;;;;;;;;;11.50;9.25;;;;;20.19;63.10;101899.13;5035561;28;45434;-68
2021/07/18 01:53:30;;;;;;;;;10.33;10.00;;;;;20.17;63.38;101903.66;5034978;28;47337;-68
2021/07/18 01:55:56;;;;;;;;;11.00;10.33;;;;;20.15;63.35;101901.91;5052129;28;45324;-68
2021/07/18 01:58:28;;;;;;;;;6.50;6.50;;;;;20.15;63.64;101906.38;5035900;28;45503;-68
2021/07/18 02:00:55;;;;;;;;;9.25;9.25;;;;;20.13;63.72;101897.59;5035088;28;45491;-68
2021/07/18 02:03:22;;;;;;;;;10.75;7.75;;;;;20.11;63.47;101899.47;5035027;28;46437;-68
2021/07/18 02:05:48;;;;;;;;;10.00;9.00;;;;;20.09;63.81;101903.97;5035376;28;45477;-68
2021/07/18 02:08:13;;;;;;;;;9.25;7.25;;;;;20.07;63.64;101900.50;5035026;28;45703;-68
2021/07/18 02:10:38;;;;;;;;;7.75;7.25;;;;;20.04;64.04;101901.50;5037218;28;45423;-68
2021/07/18 02:13:05;;;;;;;;;12.25;10.00;;;;;20.02;63.95;101900.72;5035094;28;46304;-68
2021/07/18 02:15:30;;;;;;;;;8.00;8.00;;;;;19.98;64.00;101898.25;5034915;28;45380;-66
2021/07/18 02:17:56;;;;;;;;;9.75;9.75;;;;;19.97;64.00;101893.84;5034966;28;45450;-67
2021/07/18 02:20:23;;;;;;;;;9.75;9.75;;;;;19.94;63.75;101895.69;5033880;28;45311;-67
2021/07/18 02:22:51;;;;;;;;;10.00;7.25;;;;;19.93;64.29;101901.94;5032566;28;47421;-67
2021/07/18 02:25:19;;;;;;;;;9.00;8.75;;;;;19.90;64.12;101899.44;5033174;28;45398;-67
2021/07/18 02:27:45;;;;;;;;;10.00;8.00;;;;;19.88;64.05;101895.97;5034710;28;45396;-68
2021/07/18 02:30:19;;;;;;;;;11.00;8.00;;;;;19.87;64.41;101896.00;5034505;28;45222;-67
2021/07/18 02:32:45;;;;;;;;;12.00;9.50;;;;;19.85;63.97;101892.56;5034904;28;47173;-67
2021/07/18 02:35:13;;;;;;;;;10.75;9.50;;;;;19.83;64.04;101887.31;5035146;28;45321;-67
2021/07/18 02:37:40;;;;;;;;;14.50;12.00;;;;;19.81;64.24;101889.16;5036542;28;45443;-67
2021/07/18 02:40:06;;;;;;;;;8.25;7.50;;;;;19.79;64.01;101891.03;5034323;28;45404;-67
2021/07/18 02:42:32;;;;;;;;;7.75;7.00;;;;;19.77;64.58;101892.00;5034068;28;46360;-67
2021/07/18 02:44:57;;;;;;;;;10.75;8.50;;;;;19.75;64.67;101893.88;5034523;28;45392;-68
2021/07/18 02:47:23;;;;;;;;;7.75;7.50;;;;;19.71;64.50;101886.03;5034697;28;45278;-67
2021/07/18 02:49:48;;;;;;;;;9.75;9.75;;;;;19.69;64.52;101889.66;5036827;28;45288;-67
2021/07/18 02:52:14;;;;;;;;;9.00;8.50;;;;;19.66;64.46;101884.44;5033990;28;46142;-67
2021/07/18 02:54:39;;;;;;;;;10.75;10.75;;;;;19.63;64.70;101885.41;5034147;28;45253;-67
2021/07/18 02:57:05;;;;;;;;;10.00;9.75;;;;;19.62;64.60;101886.34;5033572;28;45280;-67
2021/07/18 02:59:30;;;;;;;;;8.50;7.75;;;;;19.59;65.18;101880.28;5032061;28;45389;-67
2021/07/18 03:01:59;;;;;;;;;10.25;9.75;;;;;19.59;64.58;101885.59;5036012;28;46274;-67
2021/07/18 03:04:25;;;;;;;;;8.50;8.50;;;;;19.56;65.08;101873.31;5033494;28;45461;-67
2021/07/18 03:06:50;;;;;;;;;11.25;11.00;;;;;19.54;65.11;101880.47;5029687;28;45526;-67
2021/07/18 03:09:15;;;;;;;;;10.75;9.00;;;;;19.51;65.25;101886.75;5033500;28;46952;-67
2021/07/18 03:11:41;;;;;;;;;9.50;8.00;;;;;19.50;65.23;101882.41;5034017;28;46872;-67
2021/07/18 03:14:06;;;;;;;;;9.00;9.00;;;;;19.48;65.56;101884.25;5034380;28;45691;-67
2021/07/18 03:16:31;;;;;;;;;9.00;8.00;;;;;19.46;65.11;101879.91;5034350;28;45312;-67
2021/07/18 03:18:57;;;;;;;;;11.50;11.50;;;;;19.43;65.48;101880.91;5033765;28;45454;-67
2021/07/18 03:21:22;;;;;;;;;13.25;10.75;;;;;19.42;65.61;101876.50;5033946;28;47201;-67
2021/07/18 03:23:47;;;;;;;;;10.75;10.75;;;;;19.40;65.26;101883.69;5034208;28;45523;-67
2021/07/18 03:26:13;;;;;;;;;11.50;10.50;;;;;19.36;65.78;101879.41;5034270;28;45268;-67
2021/07/18 03:28:38;;;;;;;;;9.75;8.75;;;;;19.34;65.40;101883.91;5036472;28;45420;-67
2021/07/18 03:31:03;;;;;;;;;9.00;9.00;;;;;19.32;65.89;101875.13;5034044;28;45517;-67
2021/07/18 03:33:29;;;;;;;;;7.25;7.25;;;;;19.30;65.59;101880.50;5033858;28;45347;-67
2021/07/18 03:35:54;;;;;;;;;9.00;9.00;;;;;19.29;65.97;101878.78;5034542;28;45466;-67
2021/07/18 03:38:19;;;;;;;;;10.50;10.50;;;;;19.27;65.94;101882.41;5033149;28;45423;-67
2021/07/18 03:40:45;;;;;;;;;12.25;10.25;;;;;19.24;65.69;101880.75;5034305;28;46217;-67
2021/07/18 03:43:10;;;;;;;;;9.75;8.50;;;;;19.22;66.01;101877.28;5032623;28;45483;-67
2021/07/18 03:45:35;;;;;;;;;10.00;8.00;;;;;19.21;65.73;101879.97;5034096;28;45759;-68
2021/07/18 03:48:01;;;;;;;;;9.75;9.75;;;;;19.19;66.19;101882.72;5033745;28;45566;-67
2021/07/18 03:50:26;;;;;;;;;7.75;7.25;;;;;19.18;66.18;101872.16;5034018;28;45416;-67
2021/07/18 03:52:53;;;;;;;;;11.50;10.50;;;;;19.16;66.14;101874.00;5035743;28;46063;-67
2021/07/18 03:55:18;;;;;;;;;11.00;10.00;;;;;19.14;66.26;101875.84;5034282;28;45298;-67
2021/07/18 03:57:44;;;;;;;;;8.00;7.25;;;;;19.13;66.30;101877.63;5033537;28;45327;-67
2021/07/18 04:00:10;;;;;;;;;13.25;9.25;;;;;19.12;66.05;101877.72;5033375;28;47007;-68
2021/07/18 04:02:35;;;;;;;;;15.25;13.00;;;;;19.10;66.40;101881.25;5044821;28;46008;-67
2021/07/18 04:05:00;;;;;;;;;11.00;9.50;;;;;19.08;66.55;101877.81;5034420;28;45718;-67
2021/07/18 04:07:26;;;;;;;;;12.00;12.00;;;;;19.07;66.60;101869.91;5034948;28;45500;-67
2021/07/18 04:09:51;;;;;;;;;8.75;8.75;;;;;19.05;66.51;101875.28;5033349;28;46267;-67
2021/07/18 04:12:16;;;;;;;;;11.00;8.75;;;;;19.04;66.72;101873.56;5032425;28;45447;-68
2021/07/18 04:14:42;;;;;;;;;8.50;7.75;;;;;19.03;66.43;101885.06;5033565;28;45446;-67
2021/07/18 04:17:07;;;;;;;;;8.50;8.50;;;;;19.01;66.62;101881.59;5033916;28;45331;-68
2021/07/18 04:19:32;;;;;;;;;13.00;8.25;;;;;19.00;66.63;101884.34;5033257;28;45250;-67
2021/07/18 04:21:58;;;;;;;;;7.00;6.00;;;;;18.98;66.74;101884.38;5031941;28;45190;-67
2021/07/18 04:24:23;;;;;;;;;10.75;10.00;;;;;18.97;66.71;101882.63;5033452;28;45470;-68
2021/07/18 04:26:48;;;;;;;;;7.25;7.25;;;;;18.97;66.87;101885.28;5033745;28;45347;-67
2021/07/18 04:29:14;;;;;;;;;14.00;10.25;;;;;18.97;66.80;101885.28;5033218;28;46194;-68
2021/07/18 04:31:39;;;;;;;;;14.75;10.25;;;;;18.95;66.87;101889.81;5034735;28;45277;-67
2021/07/18 04:34:04;;;;;;;;;11.50;10.50;;;;;18.95;66.79;101894.22;5033147;28;45264;-68
2021/07/18 04:36:30;;;;;;;;;10.75;9.50;;;;;18.95;66.79;101895.13;5032874;28;45335;-68
2021/07/18 04:38:55;;;;;;;;;11.25;9.00;;;;;18.96;66.76;101888.03;5032579;28;47178;-68
2021/07/18 04:41:21;;;;;;;;;11.50;11.00;;;;;18.96;66.82;101894.19;5032961;28;45545;-68
2021/07/18 04:43:46;;;;;;;;;9.00;8.25;;;;;18.96;66.72;101895.97;5035321;28;45391;-67
2021/07/18 04:46:12;;;;;;;;;9.50;8.50;;;;;18.96;66.71;101888.88;5028217;28;45705;-68
2021/07/18 04:48:37;;;;;;;;;10.75;10.75;;;;;18.98;66.43;101891.50;5032813;28;46151;-68
2021/07/18 04:51:03;;;;;;;;;10.25;9.25;;;;;18.97;66.46;101893.25;5032813;28;45558;-67
2021/07/18 04:53:28;;;;;;;;;7.75;7.25;;;;;18.98;66.51;101888.84;5033344;28;45545;-67
2021/07/18 04:55:55;;;;;;;;;9.75;9.00;;;;;18.97;66.70;101893.25;5034767;28;45363;-67
2021/07/18 04:58:20;;;;;;;;;12.25;9.75;;;;;18.96;66.38;101895.97;5031553;28;46272;-68
2021/07/18 05:00:45;;;;;;;;;8.00;8.00;;;;;18.97;66.74;101898.56;5030737;28;45594;-67
2021/07/18 05:03:11;;;;;;;;;8.25;8.25;;;;;18.98;66.43;101907.41;5032949;28;45382;-68
2021/07/18 05:05:37;;;;;;;;;9.50;8.50;;;;;18.99;66.41;101906.47;5032719;28;45341;-68
2021/07/18 05:08:02;;;;;;;;;9.00;8.25;;;;;19.00;66.48;101908.22;5033491;28;46579;-68
2021/07/18 05:10:29;;;;;;;;;9.00;9.00;;;;;19.00;66.62;101906.44;5033860;28;45328;-67
2021/07/18 05:12:55;;;;;;;;;9.25;7.00;;;;;19.02;66.34;101909.00;5032648;28;45364;-68
2021/07/18 05:15:23;;;;;;;;;8.50;7.25;;;;;19.05;66.25;101915.09;5031757;28;45355;-68
2021/07/18 05:17:49;;;;;;;;;8.25;8.25;;;;;19.07;66.42;101912.38;5031967;28;46401;-68
2021/07/18 05:20:21;;;;;;;;;10.25;9.75;;;;;19.07;66.31;101907.94;5032168;28;45454;-68
2021/07/18 05:22:46;;;;;;;;;9.25;9.25;;;;;19.10;66.32;101912.25;5035776;28;45301;-68
2021/07/18 05:25:12;;;;;;;;;9.75;9.00;;;;;19.13;65.81;101913.94;5035704;28;45473;-68
2021/07/18 05:27:39;;;;;;;;;8.00;8.00;;;;;19.15;66.11;101915.59;5035158;28;47018;-68
2021/07/18 05:30:06;;;;;;;;;11.25;9.75;;;;;19.16;66.18;101909.34;5035010;28;45360;-68
2021/07/18 05:32:31;;;;;;;;;9.00;9.00;;;;;19.22;65.88;101913.59;5035238;28;45379;-67
2021/07/18 05:34:57;;;;;;;;;11.25;9.75;;;;;19.25;65.93;101903.69;5036156;28;47796;-67
2021/07/18 05:37:22;;;;;;;;;13.50;11.00;;;;;19.30;65.62;101908.84;5034049;28;45439;-67
2021/07/18 05:39:48;;;;;;;;;8.75;8.50;;;;;19.33;65.41;101908.75;5033063;28;45402;-67
2021/07/18 05:42:13;;;;;;;;;11.50;10.25;;;;;19.39;65.47;101916.47;5035445;28;45325;-67
2021/07/18 05:44:38;;;;;;;;;8.50;8.25;;;;;19.42;65.69;101913.69;5034915;28;45308;-67
2021/07/18 05:47:04;;;;;;;;;8.50;8.25;;;;;19.47;65.14;101913.50;5035559;28;47345;-67
2021/07/18 05:49:29;;;;;;;;;11.75;11.00;;;;;19.51;65.40;101913.31;5036563;28;45364;-67
2021/07/18 05:51:55;;;;;;;;;11.50;9.00;;;;;19.57;64.96;101906.94;5034882;28;45345;-67
2021/07/18 05:54:20;;;;;;;;;11.00;8.50;;;;;19.61;65.01;101905.00;5034996;28;45543;-67
2021/07/18 05:56:45;;;;;;;;;7.25;7.25;;;;;19.64;65.17;101916.38;5034836;28;45387;-67
2021/07/18 05:59:11;;;;;;;;;8.50;8.50;;;;;19.71;64.89;101912.59;5034515;28;45341;-67
2021/07/18 06:01:36;;;;;;;;;8.25;8.25;;;;;19.77;64.80;101915.94;5036788;28;45397;-67
2021/07/18 06:04:02;;;;;;;;;8.00;8.00;;;;;19.81;64.31;101923.72;5034316;28;45423;-67
2021/07/18 06:06:27;;;;;;;;;8.75;6.50;;;;;19.84;64.44;101918.25;5040940;28;46045;-68
2021/07/18 06:08:52;;;;;;;;;7.75;5.75;;;;;19.89;64.04;101926.06;5044132;28;45390;-67
2021/07/18 06:11:18;;;;;;;;;9.25;8.00;;;;;19.92;64.19;101921.47;5045136;28;45366;-67
2021/07/18 06:13:43;;;;;;;;;9.00;8.00;;;;;19.98;64.12;101920.38;5046893;28;45447;-67
2021/07/18 06:16:09;;;;;;;;;7.00;7.00;;;;;20.04;64.18;101917.44;5042269;28;45358;-67
2021/07/18 06:18:35;;;;;;;;;9.75;9.75;;;;;20.08;63.82;101921.72;5043382;28;45164;-66
2021/07/18 06:21:01;;;;;;;;;7.00;7.00;;;;;20.14;63.48;101924.13;5043375;28;45370;-67
2021/07/18 06:23:27;;;;;;;;;8.00;7.00;;;;;20.21;63.30;101923.84;5034760;28;45263;-68
2021/07/18 06:25:52;;;;;;;;;7.00;7.00;;;;;20.24;63.35;101929.94;5039052;28;47382;-66
2021/07/18 06:28:17;;;;;;;;;7.50;6.50;;;;;20.29;63.31;101930.59;5034298;28;45450;-67
2021/07/18 06:30:43;;;;;;;;;9.75;9.75;;;;;20.35;63.21;101930.34;5035306;28;45597;-67
2021/07/18 06:33:08;;;;;;;;;9.00;7.00;;;;;20.42;63.18;101933.59;5034812;28;45469;-67
2021/07/18 06:35:33;;;;;;;;;9.67;9.67;;;;;20.47;63.00;101936.06;5033676;28;46127;-66
2021/07/18 06:37:59;;;;;;;;;10.00;8.00;;;;;20.51;62.86;101927.03;5035734;28;45272;-66
2021/07/18 06:40:24;;;;;;;;;8.00;7.00;;;;;20.56;63.01;101925.91;5034959;28;45265;-68
2021/07/18 06:42:49;;;;;;;;;7.50;6.25;;;;;20.61;62.56;101924.88;5034240;28;45332;-66
2021/07/18 06:45:15;;;;;;;;;9.00;6.75;;;;;20.67;62.63;101932.59;5033886;28;46206;-67
2021/07/18 06:47:40;;;;;;;;;8.00;7.75;;;;;20.70;62.45;101935.97;5034571;28;45481;-67
2021/07/18 06:50:06;;;;;;;;;7.50;7.00;;;;;20.75;62.68;101933.09;5034539;28;45329;-67
2021/07/18 06:52:32;;;;;;;;;5.67;5.67;;;;;20.82;62.32;101931.03;5035973;28;45435;-67
2021/07/18 06:54:57;;;;;;;;;9.00;8.00;;;;;20.87;62.13;101935.22;5032469;28;46214;-67
2021/07/18 06:57:23;;;;;;;;;10.33;8.67;;;;;20.93;62.15;101939.44;5031993;28;45620;-67
2021/07/18 06:59:49;;;;;;;;;6.00;6.00;;;;;21.00;61.97;101930.22;5032886;28;45539;-67
2021/07/18 07:02:15;;;;;;;;;7.00;5.50;;;;;21.05;61.58;101941.53;5034091;28;45466;-67
2021/07/18 07:04:40;;;;;;;;;7.75;7.25;;;;;21.10;61.63;101938.66;5036011;28;46994;-68
2021/07/18 07:07:06;;;;;;;;;6.67;6.67;;;;;21.12;61.34;101932.34;5033731;28;45425;-67
2021/07/18 07:09:31;;;;;;;;;7.00;6.00;;;;;21.16;61.59;101933.91;5033969;28;45400;-67
2021/07/18 07:11:56;;;;;;;;;7.33;6.67;;;;;21.23;61.53;101941.63;5033298;28;45613;-67
2021/07/18 07:14:22;;;;;;;;;7.33;6.67;;;;;21.28;61.25;101935.13;5031399;28;47111;-67
2021/07/18 07:16:47;;;;;;;;;7.00;5.67;;;;;21.36;61.08;101924.16;5035434;28;45438;-67
2021/07/18 07:19:12;;;;;;;;;6.67;6.67;;;;;21.42;60.97;101934.53;5033015;28;45371;-67
2021/07/18 07:21:38;;;;;;;;;6.33;6.33;;;;;21.48;60.90;101938.72;5033749;28;45444;-67
2021/07/18 07:24:04;;;;;;;;;5.67;5.67;;;;;21.53;61.02;101931.38;5033494;28;46946;-67
2021/07/18 07:26:29;;;;;;;;;8.00;6.00;;;;;21.58;60.61;101935.56;5033776;28;45537;-67
2021/07/18 07:28:55;;;;;;;;;5.67;5.00;;;;;21.65;60.50;101920.13;5035500;28;45676;-67
2021/07/18 07:31:20;;;;;;;;;5.67;4.00;;;;;21.72;60.62;101932.22;5034273;28;45341;-67
2021/07/18 07:33:45;;;;;;;;;6.33;6.33;;;;;21.78;60.27;101931.91;5031906;28;45480;-67
2021/07/18 07:36:11;;;;;;;;;7.67;6.67;;;;;21.83;60.30;101934.34;5031745;28;45487;-67
2021/07/18 07:38:36;;;;;;;;;3.33;2.33;;;;;21.90;60.00;101933.13;5033185;28;45418;-67
2021/07/18 07:41:02;;;;;;;;;3.67;3.67;;;;;21.95;59.99;101925.78;5033327;28;45348;-66
2021/07/18 07:43:27;;;;;;;;;5.67;4.00;;;;;22.03;59.55;101933.41;5034421;28;46106;-67
2021/07/18 07:45:53;;;;;;;;;7.00;6.00;;;;;22.11;59.59;101935.69;5032470;28;45479;-67
2021/07/18 07:48:19;;;;;;;;;4.00;4.00;;;;;22.18;59.23;101926.44;5032847;28;45494;-67
2021/07/18 07:50:45;;;;;;;;;6.00;5.67;;;;;22.25;59.16;101927.88;5033545;28;45548;-67
2021/07/18 07:53:10;;;;;;;;;5.00;5.00;;;;;22.34;58.79;101931.91;5033285;28;46111;-67
2021/07/18 07:55:35;;;;;;;;;4.67;3.67;;;;;22.40;58.73;101934.25;5035473;28;45622;-67
2021/07/18 07:58:03;;;;;;;;;7.00;6.00;;;;;22.48;58.21;101926.72;5033367;28;45684;-67
2021/07/18 08:00:29;;;;;;;;;4.67;3.67;;;;;22.55;58.18;101932.59;5033059;28;45219;-68
2021/07/18 08:02:54;;;;;;;;;5.00;3.67;;;;;22.60;58.10;101930.56;5033097;28;47250;-68
2021/07/18 08:05:20;;;;;;;;;4.67;3.67;;;;;22.71;57.96;101935.34;5033005;28;45270;-68
2021/07/18 08:07:46;;;;;;;;;5.33;5.00;;;;;22.76;58.20;101931.47;5035130;28;45273;-68
2021/07/18 08:10:14;;;;;;;;;4.00;4.00;;;;;22.85;58.16;101935.47;5031282;28;45261;-68
2021/07/18 08:12:41;;;;;;;;;4.00;4.00;;;;;22.93;57.83;101927.94;5026724;28;45432;-68
2021/07/18 08:15:09;;;;;;;;;2.00;2.00;;;;;23.04;57.22;101930.03;5026626;28;45419;-68
2021/07/18 08:17:35;;;;;;;;;5.00;5.00;;;;;23.14;56.16;101920.59;5033157;28;45541;-68
2021/07/18 08:20:01;;;;;;;;;4.33;4.00;;;;;23.23;55.85;101928.09;5034072;28;45397;-68
2021/07/18 08:22:26;;;;;;;;;3.33;3.33;;;;;23.33;55.59;101917.75;5033660;28;46144;-67
2021/07/18 08:24:52;;;;;;;;;2.67;2.67;;;;;23.44;55.51;101912.69;5031998;28;45712;-68
2021/07/18 08:27:17;;;;;;;;;4.00;4.00;;;;;23.57;55.55;101917.34;5032574;28;45709;-68
2021/07/18 08:29:42;;;;;;;;;5.00;3.67;;;;;23.68;54.69;101907.78;5033011;28;45585;-68
2021/07/18 08:32:08;;;;;;;;;3.67;3.00;;;;;23.81;55.01;101902.66;5032500;28;46859;-71
2021/07/18 08:34:33;;;;;;;;;4.33;4.33;;;;;23.93;54.18;101906.38;5034597;28;45360;-68
2021/07/18 08:36:59;;;;;;;;;7.00;6.00;;;;;24.06;54.44;101906.56;5032706;28;45765;-68
2021/07/18 08:39:24;;;;;;;;;3.33;2.67;;;;;24.20;53.92;101908.44;5030576;28;45323;-68
2021/07/18 08:41:53;;;;;;;;;3.00;3.00;;;;;24.34;53.16;101903.13;5032400;28;45261;-68
2021/07/18 08:44:19;;;;;;;;;7.00;6.67;;;;;24.47;53.01;101912.16;5032338;28;45671;-68
2021/07/18 08:46:44;;;;;;;;;7.00;4.67;;;;;24.61;52.09;101908.63;5033979;28;45272;-68
2021/07/18 08:49:10;;;;;;;;;2.33;2.33;;;;;24.70;51.85;101905.41;5032504;28;45390;-68
2021/07/18 08:51:37;;;;;;;;;3.00;2.33;;;;;24.82;51.95;101894.91;5029000;28;47479;-68
2021/07/18 08:54:04;;;;;;;;;6.00;3.00;;;;;24.93;50.73;101898.63;5030014;28;45414;-68
2021/07/18 08:56:32;;;;;;;;;3.00;3.00;;;;;25.06;51.03;101898.72;5031926;28;45655;-69
2021/07/18 08:58:59;;;;;;;;;5.00;5.00;;;;;25.20;50.29;101888.00;5035913;28;45320;-68
2021/07/18 09:01:25;;;;;;;;;3.33;2.33;;;;;25.35;50.32;101902.25;5035666;28;47109;-67
2021/07/18 09:03:51;;;;;;;;;1.33;1.33;;;;;25.46;49.02;101893.53;5042476;28;45891;-69
2021/07/18 09:06:17;;;;;;;;;3.00;2.67;;;;;25.57;48.83;101898.19;5035359;28;45520;-69
2021/07/18 09:08:48;;;;;;;;;2.33;2.00;;;;;25.69;48.31;101892.00;5034782;28;45460;-69
2021/07/18 09:11:19;;;;;;;;;3.33;2.67;;;;;25.83;47.95;101886.59;5035112;28;46240;-69
2021/07/18 09:13:59;;;;;;;;;4.00;3.00;;;;;25.97;47.94;101884.84;5036853;28;45405;-69
2021/07/18 09:16:30;;;;;;;;;2.67;2.67;;;;;26.11;47.61;101889.28;5034652;28;45415;-67
2021/07/18 09:19:26;;;;;;;;;2.00;2.00;;;;;26.24;46.81;101890.16;5034731;28;45391;-68
2021/07/18 09:22:21;;;;;;;;;2.00;2.00;;;;;26.41;46.82;101891.69;5032312;28;46383;-67
2021/07/18 09:25:00;;;;;;;;;4.00;1.67;;;;;26.57;46.10;101887.00;5034703;28;45576;-67
2021/07/18 09:27:31;;;;;;;;;2.00;1.67;;;;;26.72;45.82;101884.22;5035081;28;45489;-69
2021/07/18 09:30:16;;;;;;;;;3.67;3.67;;;;;26.85;45.31;101879.69;5033502;28;45643;-69
2021/07/18 09:32:46;;;;;;;;;2.00;2.00;;;;;26.97;44.77;101886.88;5033488;28;46416;-68
2021/07/18 09:35:14;;;;;;;;;3.00;2.00;;;;;27.10;44.57;101879.66;5033167;28;45293;-68
2021/07/18 09:37:44;;;;;;;;;2.00;2.00;;;;;27.24;43.93;101885.88;5035315;28;45382;-68
2021/07/18 09:40:12;;;;;;;;;2.33;2.33;;;;;27.41;43.82;101890.03;5034644;28;45436;-69
2021/07/18 09:42:48;;;;;;;;;3.00;2.33;;;;;27.60;43.60;101887.72;5034561;28;46106;-68
2021/07/18 09:45:17;;;;;;;;;4.00;4.00;;;;;27.77;42.95;101882.91;5032227;28;45515;-68
2021/07/18 09:47:55;;;;;;;;;2.00;2.00;;;;;27.94;42.44;101878.00;5033110;28;45363;-68
2021/07/18 09:50:28;;;;;;;;;5.00;3.00;;;;;28.13;43.07;101884.69;5034562;28;47104;-69
2021/07/18 09:53:10;;;;;;;;;3.00;3.00;;;;;28.34;41.48;101892.91;5032802;28;47158;-68
2021/07/18 09:55:53;;;;;;;;;3.33;3.00;;;;;28.50;41.78;101887.25;5036615;28;45497;-69
2021/07/18 09:58:21;;;;;;;;;3.00;3.00;;;;;28.73;41.63;101882.75;5034851;28;45367;-69
2021/07/18 10:00:47;;;;;;;;;3.00;3.00;;;;;28.89;40.94;101879.66;5034524;28;45410;-68
2021/07/18 10:03:14;;;;;;;;;4.00;4.00;;;;;29.02;39.89;101885.81;5034226;28;46079;-68
2021/07/18 10:05:40;;;;;;;;;3.67;2.67;;;;;29.11;39.57;101879.72;5034055;28;45537;-68
2021/07/18 10:08:10;;;;;;;;;3.00;2.00;;;;;29.16;39.01;101879.34;5035409;28;45822;-68
2021/07/18 10:10:37;;;;;;;;;13.25;12.50;;;;;29.25;38.30;101877.72;5034649;28;45391;-68
2021/07/18 10:13:03;;;;;;;;;2.33;2.33;;;;;29.32;38.96;101871.72;5032238;28;45550;-68
2021/07/18 10:15:29;;;;;;;;;4.00;3.00;;;;;29.42;37.43;101879.91;5033408;28;45403;-69
2021/07/18 10:17:56;;;;;;;;;1.00;1.00;;;;;29.52;37.27;101869.22;5034251;28;45443;-68
2021/07/18 10:20:22;;;;;;;;;5.67;2.33;;;;;29.62;37.59;101879.09;5033791;28;45315;-68
2021/07/18 10:22:48;;;;;;;;;6.00;3.00;;;;;29.71;37.49;101872.13;5036394;28;46241;-68
2021/07/18 10:25:17;;;;;;;;;4.00;3.00;;;;;29.82;36.97;101873.94;5033750;28;45375;-69
2021/07/18 10:27:43;;;;;;;;;3.00;3.00;;;;;29.93;37.34;101868.47;5033869;28;45458;-69
2021/07/18 10:30:09;;;;;;;;;3.33;3.33;;;;;30.07;36.68;101872.69;5034296;28;45280;-68
2021/07/18 10:32:35;;;;;;;;;5.33;4.67;;;;;30.23;36.93;101866.84;5033652;28;46046;-68
2021/07/18 10:35:01;;;;;;;;;6.67;4.00;;;;;30.35;36.15;101864.97;5034622;28;45253;-69
2021/07/18 10:37:40;;;;;;;;;3.00;3.00;;;;;30.45;35.74;101866.72;5034456;28;45394;-68
2021/07/18 10:40:17;;;;;;;;;5.00;3.00;;;;;30.58;35.23;101862.94;5033526;28;45326;-68
2021/07/18 10:42:43;;;;;;;;;3.67;3.67;;;;;30.70;34.59;101859.16;5032868;28;47590;-69
2021/07/18 10:45:17;;;;;;;;;4.00;4.00;;;;;30.84;34.87;101857.97;5033409;28;45151;-68
2021/07/18 10:47:59;;;;;;;;;4.00;4.00;;;;;30.97;34.02;101857.75;5032144;28;45239;-68
2021/07/18 10:50:43;;;;;;;;;5.00;5.00;;;;;31.09;34.24;101860.19;5017340;28;45283;-68
2021/07/18 10:53:28;;;;;;;;;10.00;8.33;;;;;31.24;33.68;101846.28;5033202;28;45383;-68
2021/07/18 10:55:55;;;;;;;;;6.33;6.33;;;;;31.32;33.57;101851.81;5031263;28;45415;-68
2021/07/18 10:58:38;;;;;;;;;7.67;7.67;;;;;31.40;34.16;101849.31;5032454;28;45476;-68
2021/07/18 11:01:24;;;;;;;;;5.33;4.33;;;;;31.60;34.30;101847.47;5032999;28;45320;-69
2021/07/18 11:03:49;;;;;;;;;6.67;5.00;;;;;31.76;33.72;101846.94;5032460;28;46141;-69
2021/07/18 11:06:31;;;;;;;;;3.00;3.00;;;;;31.86;33.35;101838.78;5044517;28;45537;-69
2021/07/18 11:09:05;;;;;;;;;4.67;4.67;;;;;31.98;32.89;101847.66;5034102;28;45412;-68
2021/07/18 11:11:55;;;;;;;;;7.00;6.00;;;;;32.13;33.46;101844.38;5019116;28;45574;-68
2021/07/18 11:14:23;;;;;;;;;7.33;5.00;;;;;32.30;33.11;101841.91;5032733;28;47280;-68
2021/07/18 11:16:51;;;;;;;;;5.00;5.00;;;;;32.46;32.10;101842.13;5030509;28;45505;-69
2021/07/18 11:19:34;;;;;;;;;5.33;4.00;;;;;32.60;31.77;101840.81;5032315;28;45543;-69
2021/07/18 11:22:04;;;;;;;;;7.00;7.00;;;;;32.81;31.50;101839.75;5032462;28;45493;-68